createdAt,value
2018-11-23T00:00:17.798Z,22.40
2018-11-23T00:01:17.768Z,21.90
2018-11-23T00:02:17.756Z,22.90
2018-11-23T00:03:17.716Z,25.20
2018-11-23T00:04:17.692Z,24.30
2018-11-23T00:05:17.655Z,25.10
2018-11-23T00:06:17.634Z,24.30
2018-11-23T00:07:17.612Z,23.70
2018-11-23T00:08:17.586Z,22.00
2018-11-23T00:09:17.551Z,25.30
2018-11-23T00:10:17.559Z,21.90
2018-11-23T00:11:17.512Z,23.00
2018-11-23T00:12:17.497Z,22.40
2018-11-23T00:13:17.448Z,22.50
2018-11-23T00:14:17.417Z,22.60
2018-11-23T00:15:17.383Z,20.90
2018-11-23T00:16:17.361Z,23.00
2018-11-23T00:17:17.334Z,23.00
2018-11-23T00:18:17.302Z,24.00
2018-11-23T00:19:17.277Z,23.60
2018-11-23T00:20:17.257Z,22.90
2018-11-23T00:21:17.257Z,22.60
2018-11-23T00:22:17.208Z,23.50
2018-11-23T00:23:17.190Z,25.30
2018-11-23T00:24:17.171Z,24.30
2018-11-23T00:25:17.142Z,21.10
2018-11-23T00:26:17.093Z,22.40
2018-11-23T00:27:17.066Z,21.90
2018-11-23T00:28:17.041Z,23.20
2018-11-23T00:29:17.008Z,21.40
2018-11-23T00:30:16.994Z,22.60
2018-11-23T00:31:16.972Z,23.50
2018-11-23T00:32:16.932Z,21.30
2018-11-23T00:33:16.908Z,23.00
2018-11-23T00:34:16.880Z,22.00
2018-11-23T00:35:16.848Z,22.70
2018-11-23T00:36:16.822Z,21.40
2018-11-23T00:37:16.817Z,22.60
2018-11-23T00:38:16.785Z,24.30
2018-11-23T00:39:16.739Z,25.40
2018-11-23T00:40:16.726Z,22.90
2018-11-23T00:41:16.700Z,23.30
2018-11-23T00:42:16.655Z,23.30
2018-11-23T00:43:16.630Z,24.00
2018-11-23T00:44:16.601Z,24.90
2018-11-23T00:45:16.577Z,23.40
2018-11-23T00:46:16.550Z,22.60
2018-11-23T00:47:16.517Z,23.30
2018-11-23T00:48:16.518Z,22.50
2018-11-23T00:49:16.465Z,22.40
2018-11-23T00:50:16.445Z,21.40
2018-11-23T00:51:16.414Z,20.80
2018-11-23T00:52:16.390Z,22.40
2018-11-23T00:53:16.362Z,21.90
2018-11-23T00:54:16.349Z,25.50
2018-11-23T00:55:16.312Z,21.00
2018-11-23T00:56:16.281Z,24.40
2018-11-23T00:57:16.278Z,23.00
2018-11-23T00:58:16.287Z,23.70
2018-11-23T00:59:16.205Z,25.50
2018-11-23T01:00:16.169Z,25.00
2018-11-23T01:01:16.211Z,24.80
2018-11-23T01:02:16.121Z,24.70
2018-11-23T01:03:16.111Z,24.80
2018-11-23T01:04:16.062Z,22.10
2018-11-23T01:05:16.044Z,22.30
2018-11-23T01:06:16.007Z,25.30
2018-11-23T01:07:15.987Z,24.00
2018-11-23T01:08:15.955Z,20.90
2018-11-23T01:09:15.930Z,20.30
2018-11-23T01:10:15.909Z,21.20
2018-11-23T01:11:15.869Z,24.60
2018-11-23T01:12:15.856Z,23.60
2018-11-23T01:13:15.821Z,20.30
2018-11-23T01:14:15.793Z,20.50
2018-11-23T01:15:15.825Z,22.90
2018-11-23T01:16:15.747Z,22.60
2018-11-23T01:17:15.737Z,21.70
2018-11-23T01:18:15.682Z,19.80
2018-11-23T01:19:15.649Z,23.50
2018-11-23T01:20:15.633Z,22.00
2018-11-23T01:21:15.648Z,20.30
2018-11-23T01:22:15.596Z,20.10
2018-11-23T01:23:15.589Z,21.60
2018-11-23T01:24:15.518Z,20.30
2018-11-23T01:25:15.499Z,21.20
2018-11-23T01:26:15.459Z,22.00
2018-11-23T01:27:15.437Z,20.20
2018-11-23T01:28:15.415Z,21.40
2018-11-23T01:29:15.386Z,22.50
2018-11-23T01:30:15.361Z,22.30
2018-11-23T01:31:15.404Z,23.50
2018-11-23T01:32:15.333Z,21.70
2018-11-23T01:33:15.289Z,22.60
2018-11-23T01:34:15.256Z,23.50
2018-11-23T01:35:15.231Z,21.80
2018-11-23T01:36:15.194Z,20.40
2018-11-23T01:37:15.167Z,19.90
2018-11-23T01:38:15.160Z,20.00
2018-11-23T01:39:15.104Z,20.80
2018-11-23T01:40:15.078Z,22.50
2018-11-23T01:41:15.055Z,21.40
2018-11-23T01:42:15.039Z,25.00
2018-11-23T01:43:14.995Z,22.90
2018-11-23T01:44:15.006Z,21.60
2018-11-23T01:45:14.951Z,22.90
2018-11-23T01:46:14.914Z,23.60
2018-11-23T01:47:14.887Z,22.60
2018-11-23T01:48:14.871Z,23.00
2018-11-23T01:49:14.834Z,21.10
2018-11-23T01:50:14.812Z,20.70
2018-11-23T01:51:14.787Z,23.00
2018-11-23T01:52:14.759Z,20.10
2018-11-23T01:53:14.749Z,23.40
2018-11-23T01:54:14.714Z,23.60
2018-11-23T01:55:14.679Z,22.00
2018-11-23T01:56:14.652Z,22.40
2018-11-23T01:57:14.609Z,21.90
2018-11-23T01:58:14.608Z,20.40
2018-11-23T01:59:14.560Z,22.90
2018-11-23T02:00:14.529Z,24.10
2018-11-23T02:01:14.505Z,23.20
2018-11-23T02:02:14.501Z,19.30
2018-11-23T02:03:14.456Z,23.40
2018-11-23T02:04:14.491Z,23.20
2018-11-23T02:05:14.394Z,21.80
2018-11-23T02:06:14.390Z,25.10
2018-11-23T02:07:14.344Z,22.20
2018-11-23T02:08:29.210Z,22.70
2018-11-23T02:09:14.286Z,21.40
2018-11-23T02:10:14.252Z,23.10
2018-11-23T02:11:14.230Z,22.90
2018-11-23T02:12:14.210Z,23.10
2018-11-23T02:13:14.170Z,22.00
2018-11-23T02:14:14.144Z,22.70
2018-11-23T02:15:14.122Z,23.80
2018-11-23T02:16:14.133Z,22.20
2018-11-23T02:17:14.069Z,23.90
2018-11-23T02:18:14.064Z,21.90
2018-11-23T02:19:14.079Z,25.60
2018-11-23T02:20:13.983Z,19.90
2018-11-23T02:21:13.945Z,22.00
2018-11-23T02:22:13.922Z,21.30
2018-11-23T02:23:13.912Z,21.60
2018-11-23T02:24:13.867Z,20.90
2018-11-23T02:25:13.846Z,22.90
2018-11-23T02:26:13.843Z,23.20
2018-11-23T02:27:13.787Z,23.30
2018-11-23T02:28:13.769Z,23.90
2018-11-23T02:29:13.733Z,22.20
2018-11-23T02:30:13.725Z,24.50
2018-11-23T02:31:13.707Z,24.30
2018-11-23T02:32:13.650Z,21.80
2018-11-23T02:33:13.619Z,24.60
2018-11-23T02:34:13.598Z,23.90
2018-11-23T02:35:13.566Z,23.10
2018-11-23T02:36:13.546Z,22.20
2018-11-23T02:37:13.511Z,21.90
2018-11-23T02:38:13.486Z,25.10
2018-11-23T02:39:13.463Z,22.90
2018-11-23T02:40:13.427Z,21.30
2018-11-23T02:41:13.394Z,24.00
2018-11-23T02:42:13.387Z,24.30
2018-11-23T02:43:13.345Z,26.90
2018-11-23T02:44:13.325Z,24.00
2018-11-23T02:45:13.288Z,27.10
2018-11-23T02:46:13.260Z,23.60
2018-11-23T02:47:13.246Z,23.90
2018-11-23T02:48:13.209Z,22.50
2018-11-23T02:49:13.209Z,23.00
2018-11-23T02:50:13.165Z,24.10
2018-11-23T02:51:13.118Z,26.20
2018-11-23T02:52:13.102Z,22.30
2018-11-23T02:53:13.067Z,25.90
2018-11-23T02:54:13.078Z,24.00
2018-11-23T02:55:13.011Z,25.60
2018-11-23T02:56:12.994Z,23.00
2018-11-23T02:57:12.983Z,27.10
2018-11-23T02:58:12.927Z,23.60
2018-11-23T02:59:12.904Z,24.90
2018-11-23T03:00:12.873Z,24.90
2018-11-23T03:01:12.845Z,23.50
2018-11-23T03:02:12.823Z,23.40
2018-11-23T03:03:12.816Z,24.30
2018-11-23T03:04:12.776Z,24.80
2018-11-23T03:05:12.742Z,26.70
2018-11-23T03:06:12.711Z,23.20
2018-11-23T03:07:12.688Z,26.00
2018-11-23T03:08:12.663Z,23.90
2018-11-23T03:09:12.624Z,26.60
2018-11-23T03:10:12.622Z,22.70
2018-11-23T03:11:12.571Z,23.80
2018-11-23T03:12:12.551Z,26.20
2018-11-23T03:13:12.540Z,25.50
2018-11-23T03:14:12.489Z,23.00
2018-11-23T03:15:12.463Z,26.10
2018-11-23T03:16:12.429Z,25.10
2018-11-23T03:17:12.410Z,23.70
2018-11-23T03:18:12.382Z,24.90
2018-11-23T03:19:12.358Z,27.00
2018-11-23T03:20:12.353Z,27.00
2018-11-23T03:21:12.291Z,24.40
2018-11-23T03:22:12.284Z,25.40
2018-11-23T03:23:12.248Z,24.10
2018-11-23T03:24:12.211Z,23.90
2018-11-23T03:25:12.193Z,26.20
2018-11-23T03:26:12.165Z,24.70
2018-11-23T03:27:12.158Z,24.70
2018-11-23T03:28:12.110Z,23.50
2018-11-23T03:29:12.075Z,27.60
2018-11-23T03:30:12.049Z,22.40
2018-11-23T03:31:12.628Z,23.20
2018-11-23T03:32:12.003Z,24.60
2018-11-23T03:33:11.973Z,22.80
2018-11-23T03:34:11.950Z,25.10
2018-11-23T03:35:11.909Z,24.70
2018-11-23T03:36:11.900Z,21.40
2018-11-23T03:37:11.856Z,24.30
2018-11-23T03:38:11.850Z,24.60
2018-11-23T03:39:11.798Z,24.10
2018-11-23T03:40:11.774Z,25.10
2018-11-23T03:41:11.753Z,25.00
2018-11-23T03:42:11.717Z,27.00
2018-11-23T03:43:11.742Z,24.00
2018-11-23T03:44:11.665Z,25.30
2018-11-23T03:45:11.635Z,24.80
2018-11-23T03:46:11.611Z,24.80
2018-11-23T03:47:11.591Z,22.50
2018-11-23T03:48:11.551Z,23.70
2018-11-23T03:49:11.529Z,26.00
2018-11-23T03:50:11.523Z,24.20
2018-11-23T03:51:11.489Z,25.00
2018-11-23T03:52:11.450Z,23.60
2018-11-23T03:53:11.414Z,24.60
2018-11-23T03:54:11.406Z,26.10
2018-11-23T03:55:11.395Z,24.80
2018-11-23T03:56:11.341Z,25.30
2018-11-23T03:57:11.328Z,22.90
2018-11-23T03:58:11.288Z,25.70
2018-11-23T03:59:11.254Z,25.40
2018-11-23T04:00:17.103Z,25.00
2018-11-23T04:01:11.198Z,23.70
2018-11-23T04:02:11.168Z,26.50
2018-11-23T04:03:11.167Z,24.70
2018-11-23T04:04:11.116Z,23.10
2018-11-23T04:05:11.091Z,24.20
2018-11-23T04:06:11.089Z,26.30
2018-11-23T04:07:11.058Z,23.50
2018-11-23T04:08:11.076Z,25.40
2018-11-23T04:09:11.092Z,27.50
2018-11-23T04:10:10.952Z,23.50
2018-11-23T04:11:10.961Z,29.70
2018-11-23T04:12:10.899Z,27.80
2018-11-23T04:13:10.894Z,25.40
2018-11-23T04:14:10.867Z,23.70
2018-11-23T04:15:10.815Z,24.60
2018-11-23T04:16:10.791Z,24.10
2018-11-23T04:17:10.760Z,25.50
2018-11-23T04:18:10.735Z,25.90
2018-11-23T04:19:10.716Z,23.70
2018-11-23T04:20:10.688Z,24.70
2018-11-23T04:21:10.667Z,21.50
2018-11-23T04:22:10.626Z,24.80
2018-11-23T04:23:10.622Z,25.10
2018-11-23T04:24:10.653Z,25.10
2018-11-23T04:25:10.565Z,21.10
2018-11-23T04:26:10.510Z,26.60
2018-11-23T04:27:10.505Z,24.40
2018-11-23T04:28:10.452Z,27.40
2018-11-23T04:29:10.450Z,23.50
2018-11-23T04:30:10.407Z,25.30
2018-11-23T04:31:10.375Z,24.20
2018-11-23T04:32:10.355Z,25.50
2018-11-23T04:33:10.314Z,23.40
2018-11-23T04:34:10.299Z,22.80
2018-11-23T04:35:10.261Z,25.80
2018-11-23T04:36:10.237Z,25.50
2018-11-23T04:37:10.237Z,27.60
2018-11-23T04:38:10.192Z,26.10
2018-11-23T04:39:10.150Z,27.60
2018-11-23T04:40:10.127Z,26.70
2018-11-23T04:41:10.104Z,25.10
2018-11-23T04:42:10.065Z,25.50
2018-11-23T04:43:10.047Z,25.80
2018-11-23T04:44:10.038Z,23.10
2018-11-23T04:45:09.994Z,25.20
2018-11-23T04:46:09.959Z,25.10
2018-11-23T04:47:09.935Z,24.40
2018-11-23T04:48:09.898Z,25.20
2018-11-23T04:49:09.877Z,25.70
2018-11-23T04:50:09.861Z,26.80
2018-11-23T04:51:09.821Z,26.20
2018-11-23T04:52:09.808Z,23.70
2018-11-23T04:53:09.765Z,22.50
2018-11-23T04:54:09.734Z,25.00
2018-11-23T04:55:09.712Z,23.40
2018-11-23T04:56:09.707Z,23.40
2018-11-23T04:57:09.671Z,24.40
2018-11-23T04:58:09.640Z,27.30
2018-11-23T04:59:09.615Z,25.70
2018-11-23T05:00:09.575Z,25.10
2018-11-23T05:01:09.543Z,24.30
2018-11-23T05:02:09.516Z,24.50
2018-11-23T05:03:09.484Z,25.20
2018-11-23T05:04:09.458Z,25.70
2018-11-23T05:05:09.436Z,26.30
2018-11-23T05:06:09.398Z,25.10
2018-11-23T05:07:09.386Z,26.90
2018-11-23T05:08:09.376Z,24.80
2018-11-23T05:09:09.342Z,26.00
2018-11-23T05:10:09.311Z,25.00
2018-11-23T05:11:09.268Z,22.80
2018-11-23T05:12:09.240Z,27.50
2018-11-23T05:13:09.216Z,26.10
2018-11-23T05:14:09.178Z,25.40
2018-11-23T05:15:09.149Z,24.20
2018-11-23T05:16:09.163Z,26.00
2018-11-23T05:17:09.101Z,27.10
2018-11-23T05:18:09.072Z,26.40
2018-11-23T05:19:09.057Z,26.40
2018-11-23T05:20:09.030Z,26.60
2018-11-23T05:21:08.982Z,27.90
2018-11-23T05:22:08.966Z,27.30
2018-11-23T05:23:08.951Z,25.30
2018-11-23T05:24:08.909Z,26.80
2018-11-23T05:25:08.932Z,28.60
2018-11-23T05:26:08.863Z,26.40
2018-11-23T05:27:08.820Z,25.30
2018-11-23T05:28:08.839Z,25.80
2018-11-23T05:29:08.780Z,27.10
2018-11-23T05:30:08.732Z,25.50
2018-11-23T05:31:08.706Z,28.90
2018-11-23T05:32:08.685Z,25.00
2018-11-23T05:33:08.651Z,25.60
2018-11-23T05:34:08.623Z,25.50
2018-11-23T05:35:08.593Z,28.60
2018-11-23T05:36:08.582Z,24.90
2018-11-23T05:37:08.552Z,23.60
2018-11-23T05:38:08.533Z,27.20
2018-11-23T05:39:08.504Z,26.20
2018-11-23T05:40:08.460Z,27.70
2018-11-23T05:41:08.427Z,23.90
2018-11-23T05:42:08.403Z,25.50
2018-11-23T05:43:08.383Z,25.70
2018-11-23T05:44:08.348Z,24.70
2018-11-23T05:45:08.363Z,25.40
2018-11-23T05:46:08.291Z,26.30
2018-11-23T05:47:08.260Z,25.60
2018-11-23T05:48:08.237Z,28.90
2018-11-23T05:49:08.238Z,25.00
2018-11-23T05:50:08.196Z,26.80
2018-11-23T05:51:08.179Z,29.70
2018-11-23T05:52:08.150Z,23.40
2018-11-23T05:53:08.139Z,28.80
2018-11-23T05:54:08.074Z,29.60
2018-11-23T05:55:08.049Z,26.30
2018-11-23T05:56:08.018Z,26.60
2018-11-23T05:57:08.703Z,27.50
2018-11-23T05:58:07.954Z,26.80
2018-11-23T05:59:07.928Z,26.30
2018-11-23T06:00:07.900Z,25.80
2018-11-23T06:01:07.890Z,26.90
2018-11-23T06:02:07.869Z,26.80
2018-11-23T06:03:07.817Z,24.40
2018-11-23T06:04:07.793Z,23.90
2018-11-23T06:05:07.772Z,25.80
2018-11-23T06:06:07.738Z,26.20
2018-11-23T06:07:07.707Z,26.50
2018-11-23T06:08:07.680Z,24.80
2018-11-23T06:09:07.650Z,25.20
2018-11-23T06:10:07.623Z,26.70
2018-11-23T06:11:07.618Z,25.90
2018-11-23T06:12:07.566Z,28.40
2018-11-23T06:13:07.543Z,25.60
2018-11-23T06:14:07.511Z,27.00
2018-11-23T06:15:07.479Z,23.90
2018-11-23T06:16:07.479Z,24.40
2018-11-23T06:17:07.440Z,26.00
2018-11-23T06:18:07.402Z,25.80
2018-11-23T06:19:07.371Z,23.60
2018-11-23T06:20:07.345Z,26.10
2018-11-23T06:21:07.352Z,26.30
2018-11-23T06:22:07.323Z,24.60
2018-11-23T06:23:07.299Z,25.40
2018-11-23T06:24:07.256Z,24.40
2018-11-23T06:25:07.222Z,27.20
2018-11-23T06:26:07.193Z,26.70
2018-11-23T06:27:07.162Z,25.00
2018-11-23T06:28:07.123Z,24.50
2018-11-23T06:29:07.089Z,23.10
2018-11-23T06:30:07.073Z,23.70
2018-11-23T06:31:07.042Z,24.20
2018-11-23T06:32:07.028Z,24.70
2018-11-23T06:33:06.989Z,22.70
2018-11-23T06:34:06.951Z,23.30
2018-11-23T06:35:06.924Z,25.80
2018-11-23T06:36:06.909Z,26.30
2018-11-23T06:37:06.893Z,26.20
2018-11-23T06:38:06.846Z,24.40
2018-11-23T06:39:06.816Z,23.80
2018-11-23T06:40:06.796Z,25.80
2018-11-23T06:41:10.506Z,27.10
2018-11-23T06:42:06.749Z,25.50
2018-11-23T06:43:06.710Z,24.80
2018-11-23T06:44:06.683Z,27.40
2018-11-23T06:45:06.645Z,24.90
2018-11-23T06:46:06.659Z,25.10
2018-11-23T06:47:06.611Z,25.30
2018-11-23T06:48:06.576Z,24.60
2018-11-23T06:49:06.563Z,26.80
2018-11-23T06:50:06.520Z,25.70
2018-11-23T06:51:06.479Z,27.50
2018-11-23T06:52:06.471Z,26.90
2018-11-23T06:53:06.431Z,25.40
2018-11-23T06:54:06.399Z,24.90
2018-11-23T06:55:06.377Z,27.10
2018-11-23T06:56:06.346Z,29.40
2018-11-23T06:57:06.318Z,24.50
2018-11-23T06:58:06.297Z,26.70
2018-11-23T06:59:06.272Z,26.50
2018-11-23T07:00:06.291Z,26.30
2018-11-23T07:01:06.239Z,24.90
2018-11-23T07:02:06.212Z,25.90
2018-11-23T07:03:06.170Z,24.20
2018-11-23T07:04:06.186Z,26.40
2018-11-23T07:05:06.111Z,27.60
2018-11-23T07:06:06.115Z,24.50
2018-11-23T07:07:06.083Z,25.60
2018-11-23T07:08:06.051Z,27.20
2018-11-23T07:09:05.981Z,28.40
2018-11-23T07:10:05.964Z,26.10
2018-11-23T07:11:05.952Z,26.10
2018-11-23T07:12:05.908Z,26.80
2018-11-23T07:13:05.882Z,26.30
2018-11-23T07:14:05.841Z,28.30
2018-11-23T07:15:05.824Z,27.80
2018-11-23T07:16:05.795Z,26.70
2018-11-23T07:17:05.757Z,27.00
2018-11-23T07:18:05.735Z,27.30
2018-11-23T07:19:05.702Z,25.90
2018-11-23T07:20:05.676Z,25.20
2018-11-23T07:21:05.648Z,25.50
2018-11-23T07:22:05.651Z,26.50
2018-11-23T07:23:05.600Z,24.40
2018-11-23T07:24:05.571Z,26.10
2018-11-23T07:25:05.589Z,28.10
2018-11-23T07:26:05.510Z,30.70
2018-11-23T07:27:05.519Z,29.00
2018-11-23T07:28:05.518Z,30.80
2018-11-23T07:29:05.457Z,27.50
2018-11-23T07:30:05.463Z,26.80
2018-11-23T07:31:05.439Z,28.40
2018-11-23T07:32:05.383Z,26.40
2018-11-23T07:33:05.316Z,26.20
2018-11-23T07:34:05.325Z,24.90
2018-11-23T07:35:05.342Z,24.90
2018-11-23T07:36:05.237Z,25.70
2018-11-23T07:37:05.315Z,25.60
2018-11-23T07:38:05.175Z,25.40
2018-11-23T07:39:05.176Z,25.90
2018-11-23T07:40:05.194Z,25.50
2018-11-23T07:41:05.099Z,23.00
2018-11-23T07:42:05.073Z,28.30
2018-11-23T07:43:05.049Z,25.90
2018-11-23T07:44:05.021Z,24.90
2018-11-23T07:45:04.989Z,26.50
2018-11-23T07:46:04.973Z,29.30
2018-11-23T07:47:04.932Z,24.80
2018-11-23T07:48:04.907Z,26.20
2018-11-23T07:49:04.876Z,27.20
2018-11-23T07:50:04.849Z,25.60
2018-11-23T07:51:04.904Z,24.60
2018-11-23T07:52:04.865Z,24.60
2018-11-23T07:53:04.776Z,27.20
2018-11-23T07:54:04.742Z,25.30
2018-11-23T07:55:04.738Z,25.60
2018-11-23T07:56:04.746Z,27.20
2018-11-23T07:57:04.655Z,29.00
2018-11-23T07:58:04.644Z,24.60
2018-11-23T07:59:04.609Z,25.10
2018-11-23T08:00:04.574Z,29.80
2018-11-23T08:01:04.548Z,28.00
2018-11-23T08:02:04.555Z,28.30
2018-11-23T08:03:04.496Z,26.10
2018-11-23T08:04:04.475Z,26.70
2018-11-23T08:05:04.516Z,31.00
2018-11-23T08:06:04.469Z,28.00
2018-11-23T08:07:04.397Z,27.20
2018-11-23T08:08:04.376Z,27.40
2018-11-23T08:09:04.402Z,28.70
2018-11-23T08:10:04.301Z,29.60
2018-11-23T08:11:04.285Z,26.40
2018-11-23T08:12:04.247Z,27.20
2018-11-23T08:13:04.256Z,30.80
2018-11-23T08:14:04.207Z,31.30
2018-11-23T08:15:04.177Z,32.00
2018-11-23T08:16:04.198Z,29.50
2018-11-23T08:17:04.120Z,33.20
2018-11-23T08:18:04.102Z,30.80
2018-11-23T08:19:04.079Z,28.20
2018-11-23T08:20:04.035Z,29.80
2018-11-23T08:21:04.011Z,30.30
2018-11-23T08:22:03.989Z,30.80
2018-11-23T08:23:03.971Z,27.90
2018-11-23T08:24:03.961Z,26.80
2018-11-23T08:25:03.909Z,30.90
2018-11-23T08:26:03.915Z,28.20
2018-11-23T08:27:03.865Z,28.10
2018-11-23T08:28:03.850Z,28.40
2018-11-23T08:29:03.841Z,28.30
2018-11-23T08:30:03.805Z,28.60
2018-11-23T08:31:03.777Z,27.20
2018-11-23T08:32:03.756Z,28.30
2018-11-23T08:33:03.695Z,28.50
2018-11-23T08:34:03.738Z,27.70
2018-11-23T08:35:03.659Z,28.90
2018-11-23T08:36:03.647Z,28.30
2018-11-23T08:37:03.598Z,28.70
2018-11-23T08:38:03.580Z,27.90
2018-11-23T08:39:04.786Z,27.60
2018-11-23T08:40:03.582Z,33.00
2018-11-23T08:41:03.538Z,29.00
2018-11-23T08:42:03.488Z,27.50
2018-11-23T08:43:03.427Z,27.70
2018-11-23T08:44:03.402Z,27.90
2018-11-23T08:45:03.372Z,29.40
2018-11-23T08:46:03.347Z,28.60
2018-11-23T08:47:03.325Z,27.90
2018-11-23T08:48:03.292Z,29.80
2018-11-23T08:49:03.275Z,25.90
2018-11-23T08:50:03.239Z,29.00
2018-11-23T08:51:03.216Z,26.10
2018-11-23T08:52:03.206Z,27.80
2018-11-23T08:53:03.193Z,29.10
2018-11-23T08:54:03.172Z,27.50
2018-11-23T08:55:03.121Z,30.80
2018-11-23T08:56:03.112Z,30.60
2018-11-23T08:57:03.063Z,27.90
2018-11-23T08:58:03.047Z,30.00
2018-11-23T08:59:03.025Z,26.10
2018-11-23T09:00:03.007Z,29.50
2018-11-23T09:01:02.964Z,29.40
2018-11-23T09:02:02.925Z,29.30
2018-11-23T09:03:02.902Z,30.40
2018-11-23T09:04:02.893Z,28.90
2018-11-23T09:05:02.865Z,29.90
2018-11-23T09:06:02.825Z,28.80
2018-11-23T09:07:02.796Z,29.90
2018-11-23T09:08:02.780Z,31.00
2018-11-23T09:09:02.742Z,27.30
2018-11-23T09:10:02.739Z,30.80
2018-11-23T09:11:02.697Z,28.40
2018-11-23T09:12:02.673Z,31.30
2018-11-23T09:13:02.664Z,29.40
2018-11-23T09:14:02.624Z,27.00
2018-11-23T09:15:02.589Z,30.60
2018-11-23T09:16:02.592Z,27.80
2018-11-23T09:17:02.546Z,29.70
2018-11-23T09:18:02.525Z,30.80
2018-11-23T09:19:02.535Z,34.50
2018-11-23T09:20:02.468Z,29.30
2018-11-23T09:21:02.436Z,29.00
2018-11-23T09:22:02.447Z,31.40
2018-11-23T09:23:02.382Z,30.20
2018-11-23T09:24:02.451Z,28.10
2018-11-23T09:25:02.333Z,30.30
2018-11-23T09:26:02.307Z,28.50
2018-11-23T09:27:02.286Z,29.00
2018-11-23T09:28:02.291Z,30.90
2018-11-23T09:29:02.232Z,29.70
2018-11-23T09:30:02.208Z,28.60
2018-11-23T09:31:02.202Z,29.00
2018-11-23T09:32:02.159Z,30.20
2018-11-23T09:33:02.144Z,27.00
2018-11-23T09:34:02.103Z,32.20
2018-11-23T09:35:02.152Z,32.30
2018-11-23T09:36:02.057Z,29.50
2018-11-23T09:37:02.029Z,28.40
2018-11-23T09:38:02.007Z,28.30
2018-11-23T09:39:02.021Z,29.30
2018-11-23T09:40:02.016Z,29.20
2018-11-23T09:41:01.926Z,33.20
2018-11-23T09:42:01.903Z,33.90
2018-11-23T09:43:01.884Z,29.50
2018-11-23T09:44:01.856Z,32.40
2018-11-23T09:45:01.845Z,36.10
2018-11-23T09:46:01.805Z,34.00
2018-11-23T09:47:01.794Z,30.00
2018-11-23T09:48:01.784Z,29.20
2018-11-23T09:49:01.742Z,32.40
2018-11-23T09:50:01.700Z,30.90
2018-11-23T09:51:01.678Z,32.30
2018-11-23T09:52:01.660Z,31.90
2018-11-23T09:53:01.641Z,30.30
2018-11-23T09:54:01.665Z,28.40
2018-11-23T09:55:01.578Z,32.30
2018-11-23T09:56:01.567Z,33.10
2018-11-23T09:57:01.582Z,28.60
2018-11-23T09:58:01.556Z,32.90
2018-11-23T09:59:01.496Z,30.30
2018-11-23T10:00:01.486Z,30.10
2018-11-23T10:01:01.469Z,27.30
2018-11-23T10:02:01.414Z,30.00
2018-11-23T10:03:01.420Z,28.30
2018-11-23T10:04:01.378Z,29.10
2018-11-23T10:05:01.377Z,30.50
2018-11-23T10:06:01.679Z,32.70
2018-11-23T10:07:01.299Z,29.00
2018-11-23T10:08:01.260Z,32.20
2018-11-23T10:09:01.254Z,30.70
2018-11-23T10:10:01.228Z,32.50
2018-11-23T10:11:01.180Z,28.60
2018-11-23T10:12:01.151Z,29.40
2018-11-23T10:13:01.139Z,29.90
2018-11-23T10:14:01.113Z,31.80
2018-11-23T10:15:01.106Z,30.00
2018-11-23T10:16:01.058Z,30.40
2018-11-23T10:17:01.055Z,30.20
2018-11-23T10:18:02.135Z,31.30
2018-11-23T10:19:01.094Z,30.70
2018-11-23T10:20:01.016Z,30.70
2018-11-23T10:21:00.940Z,31.80
2018-11-23T10:22:00.905Z,30.30
2018-11-23T10:23:00.891Z,30.80
2018-11-23T10:24:00.907Z,28.50
2018-11-23T10:25:00.875Z,27.80
2018-11-23T10:26:00.807Z,30.10
2018-11-23T10:27:00.841Z,30.20
2018-11-23T10:28:00.777Z,32.30
2018-11-23T10:29:00.738Z,30.70
2018-11-23T10:30:01.304Z,28.70
2018-11-23T10:31:00.699Z,31.50
2018-11-23T10:32:00.669Z,31.10
2018-11-23T10:33:00.634Z,29.00
2018-11-23T10:34:00.621Z,31.40
2018-11-23T10:35:00.596Z,27.80
2018-11-23T10:36:00.628Z,34.00
2018-11-23T10:37:00.540Z,33.10
2018-11-23T10:38:00.519Z,31.10
2018-11-23T10:39:00.523Z,31.10
2018-11-23T10:40:00.629Z,31.80
2018-11-23T10:41:00.535Z,31.80
2018-11-23T10:42:00.448Z,29.50
2018-11-23T10:43:00.429Z,29.50
2018-11-23T10:44:00.369Z,28.20
2018-11-23T10:45:00.344Z,30.00
2018-11-23T10:46:00.329Z,32.30
2018-11-23T10:47:00.300Z,34.20
2018-11-23T10:48:00.276Z,32.30
2018-11-23T10:49:00.261Z,33.40
2018-11-23T10:50:00.243Z,32.00
2018-11-23T10:51:00.238Z,33.00
2018-11-23T10:52:00.182Z,34.30
2018-11-23T10:53:00.157Z,32.00
2018-11-23T10:54:00.151Z,32.60
2018-11-23T10:55:00.112Z,37.80
2018-11-23T10:56:00.093Z,32.80
2018-11-23T10:57:00.084Z,34.70
2018-11-23T10:58:00.049Z,30.80
2018-11-23T10:59:00.021Z,33.60
2018-11-23T10:59:59.988Z,29.90
2018-11-23T11:01:00.030Z,31.20
2018-11-23T11:01:59.953Z,33.00
2018-11-23T11:02:59.927Z,33.50
2018-11-23T11:03:59.919Z,32.00
2018-11-23T11:04:59.869Z,31.10
2018-11-23T11:05:59.874Z,26.20
2018-11-23T11:06:59.846Z,30.70
2018-11-23T11:07:59.806Z,30.90
2018-11-23T11:08:59.782Z,31.40
2018-11-23T11:09:59.771Z,33.90
2018-11-23T11:10:59.769Z,28.80
2018-11-23T11:11:59.734Z,29.40
2018-11-23T11:12:59.689Z,31.40
2018-11-23T11:13:59.659Z,33.00
2018-11-23T11:14:59.664Z,34.40
2018-11-23T11:15:59.616Z,29.90
2018-11-23T11:16:59.618Z,29.40
2018-11-23T11:17:59.566Z,31.10
2018-11-23T11:18:59.580Z,28.90
2018-11-23T11:19:59.542Z,29.40
2018-11-23T11:20:59.510Z,31.20
2018-11-23T11:21:59.474Z,33.10
2018-11-23T11:22:59.453Z,30.90
2018-11-23T11:23:59.433Z,32.30
2018-11-23T11:24:59.427Z,30.30
2018-11-23T11:25:59.387Z,33.80
2018-11-23T11:26:59.373Z,30.90
2018-11-23T11:27:59.351Z,31.00
2018-11-23T11:28:59.355Z,29.30
2018-11-23T11:29:59.297Z,29.70
2018-11-23T11:30:59.286Z,32.10
2018-11-23T11:31:59.262Z,30.30
2018-11-23T11:32:59.224Z,28.20
2018-11-23T11:33:59.195Z,29.30
2018-11-23T11:34:59.179Z,30.80
2018-11-23T11:35:59.161Z,29.00
2018-11-23T11:36:59.133Z,29.50
2018-11-23T11:37:59.131Z,33.30
2018-11-23T11:38:59.085Z,31.70
2018-11-23T11:39:59.093Z,36.90
2018-11-23T11:40:59.040Z,27.80
2018-11-23T11:41:59.010Z,34.50
2018-11-23T11:42:58.997Z,33.40
2018-11-23T11:43:58.980Z,31.90
2018-11-23T11:44:58.946Z,32.70
2018-11-23T11:45:58.959Z,30.10
2018-11-23T11:46:58.902Z,27.60
2018-11-23T11:47:58.903Z,32.20
2018-11-23T11:48:58.860Z,30.60
2018-11-23T11:49:59.219Z,30.20
2018-11-23T11:50:58.823Z,34.40
2018-11-23T11:51:58.785Z,27.30
2018-11-23T11:52:58.771Z,31.10
2018-11-23T11:53:58.772Z,27.10
2018-11-23T11:54:58.725Z,28.30
2018-11-23T11:55:58.694Z,29.60
2018-11-23T11:56:58.678Z,31.20
2018-11-23T11:57:58.671Z,27.10
2018-11-23T11:58:58.652Z,29.90
2018-11-23T11:59:58.628Z,27.30
2018-11-23T12:00:58.582Z,29.70
2018-11-23T12:01:58.563Z,28.90
2018-11-23T12:02:58.539Z,26.60
2018-11-23T12:03:58.511Z,31.30
2018-11-23T12:04:58.508Z,28.50
2018-11-23T12:05:58.492Z,28.20
2018-11-23T12:06:58.449Z,28.00
2018-11-23T12:07:58.424Z,25.40
2018-11-23T12:08:58.404Z,23.50
2018-11-23T12:09:58.390Z,26.00
2018-11-23T12:10:58.373Z,25.90
2018-11-23T12:11:58.352Z,27.70
2018-11-23T12:12:58.310Z,27.10
2018-11-23T12:13:58.304Z,27.30
2018-11-23T12:14:58.265Z,24.70
2018-11-23T12:15:58.262Z,25.50
2018-11-23T12:16:58.229Z,32.00
2018-11-23T12:17:58.203Z,32.70
2018-11-23T12:18:58.188Z,28.30
2018-11-23T12:19:58.164Z,31.10
2018-11-23T12:20:58.136Z,28.50
2018-11-23T12:21:58.119Z,31.10
2018-11-23T12:22:58.091Z,30.00
2018-11-23T12:23:58.136Z,30.20
2018-11-23T12:24:58.052Z,31.50
2018-11-23T12:25:58.046Z,27.80
2018-11-23T12:26:58.014Z,29.80
2018-11-23T12:27:58.023Z,30.00
2018-11-23T12:28:57.968Z,26.80
2018-11-23T12:29:57.943Z,31.20
2018-11-23T12:30:57.950Z,28.10
2018-11-23T12:31:57.894Z,28.80
2018-11-23T12:32:57.871Z,27.70
2018-11-23T12:33:57.848Z,28.80
2018-11-23T12:34:57.854Z,33.40
2018-11-23T12:35:57.819Z,31.00
2018-11-23T12:36:57.787Z,33.40
2018-11-23T12:37:57.824Z,33.40
2018-11-23T12:38:57.737Z,34.30
2018-11-23T12:39:57.764Z,29.80
2018-11-23T12:40:57.705Z,33.70
2018-11-23T12:41:57.673Z,30.50
2018-11-23T12:42:57.657Z,31.40
2018-11-23T12:43:57.633Z,29.90
2018-11-23T12:44:57.631Z,28.50
2018-11-23T12:45:57.679Z,29.60
2018-11-23T12:46:57.572Z,32.60
2018-11-23T12:47:57.543Z,31.20
2018-11-23T12:48:57.544Z,31.60
2018-11-23T12:49:57.499Z,32.10
2018-11-23T12:50:57.479Z,32.10
2018-11-23T12:51:57.462Z,31.20